Baltimore, Maryland
Traffic Map
Current Weather Conditions
Baltimore, Maryland
Few Clouds
Few Clouds
83°
Feels Like: 86°
Wind Chill: 83° Ceiling: Unl
Heat Index: 86° Visibility: 7mi
Dew Point: 68° Wind: 5mph
Humidity: 60% Direction: 190° (S)
Pressure: 29.97in Gusts: 0mph
Raw Report DataKBWI 072354Z 19004KT 7SM FEW250 28/20 A2997 RMK AO2 SLP149 T02830200 10317 20283 55001
Traffic Incident Summary
Active as of:
Severity:
Category:
InformationThere was an issue retrieving the traffic information for this location. Please try a different location or try again shortly.
Advertisements
Track Severe Weather on mobile